sensor_id;sensor_type;location;lat;lon;timestamp;P1;durP1;ratioP1;P2;durP2;ratioP2
2956;SDS011;1488;51.548;7.222;2023-06-10T07:05:54;3.27;;;2.97;;
2956;SDS011;1488;51.548;7.222;2023-06-10T07:08:22;3.20;;;3.00;;
2956;SDS011;1488;51.548;7.222;2023-06-10T07:10:48;5.87;;;2.87;;
2956;SDS011;1488;51.548;7.222;2023-06-10T07:13:15;3.53;;;3.03;;
2956;SDS011;1488;51.548;7.222;2023-06-10T07:15:42;3.83;;;3.20;;
2956;SDS011;1488;51.548;7.222;2023-06-10T07:18:09;3.20;;;2.90;;
2956;SDS011;1488;51.548;7.222;2023-06-10T07:20:35;2.97;;;2.77;;
2956;SDS011;1488;51.548;7.222;2023-06-10T07:23:04;3.50;;;3.30;;
2956;SDS011;1488;51.548;7.222;2023-06-10T07:25:31;3.20;;;3.00;;
2956;SDS011;1488;51.548;7.222;2023-06-10T07:27:57;2.80;;;2.60;;
2956;SDS011;1488;51.548;7.222;2023-06-10T07:30:24;2.93;;;2.70;;
2956;SDS011;1488;51.548;7.222;2023-06-10T07:32:51;3.20;;;2.90;;
2956;SDS011;1488;51.548;7.222;2023-06-10T07:35:18;5.53;;;2.90;;
2956;SDS011;1488;51.548;7.222;2023-06-10T07:37:45;2.93;;;2.73;;
2956;SDS011;1488;51.548;7.222;2023-06-10T07:40:13;3.40;;;2.90;;
2956;SDS011;1488;51.548;7.222;2023-06-10T07:42:40;3.27;;;3.07;;
2956;SDS011;1488;51.548;7.222;2023-06-10T07:45:07;3.57;;;3.27;;
2956;SDS011;1488;51.548;7.222;2023-06-10T07:47:34;3.07;;;2.63;;
2956;SDS011;1488;51.548;7.222;2023-06-10T07:50:01;3.50;;;3.20;;
2956;SDS011;1488;51.548;7.222;2023-06-10T07:52:28;4.30;;;2.80;;
2956;SDS011;1488;51.548;7.222;2023-06-10T07:54:54;2.90;;;2.70;;
2956;SDS011;1488;51.548;7.222;2023-06-10T07:57:22;3.17;;;2.80;;
2956;SDS011;1488;51.548;7.222;2023-06-10T07:59:49;3.33;;;3.13;;
2956;SDS011;1488;51.548;7.222;2023-06-10T08:02:16;3.40;;;3.20;;
2956;SDS011;1488;51.548;7.222;2023-06-10T08:04:43;3.00;;;2.80;;
2956;SDS011;1488;51.548;7.222;2023-06-10T08:07:10;3.00;;;2.80;;
2956;SDS011;1488;51.548;7.222;2023-06-10T08:09:36;2.93;;;2.73;;
2956;SDS011;1488;51.548;7.222;2023-06-10T08:12:03;2.90;;;2.70;;
2956;SDS011;1488;51.548;7.222;2023-06-10T08:14:34;3.10;;;2.90;;
2956;SDS011;1488;51.548;7.222;2023-06-10T08:17:02;3.00;;;2.80;;
2956;SDS011;1488;51.548;7.222;2023-06-10T08:19:30;3.30;;;3.00;;
2956;SDS011;1488;51.548;7.222;2023-06-10T08:21:57;3.30;;;3.00;;
2956;SDS011;1488;51.548;7.222;2023-06-10T08:24:24;2.63;;;2.43;;
2956;SDS011;1488;51.548;7.222;2023-06-10T08:26:51;3.33;;;2.70;;
2956;SDS011;1488;51.548;7.222;2023-06-10T08:29:17;3.47;;;3.17;;
2956;SDS011;1488;51.548;7.222;2023-06-10T08:31:45;3.43;;;3.13;;
2956;SDS011;1488;51.548;7.222;2023-06-10T08:34:12;3.27;;;3.07;;
2956;SDS011;1488;51.548;7.222;2023-06-10T08:36:39;3.47;;;3.17;;
2956;SDS011;1488;51.548;7.222;2023-06-10T08:39:06;5.53;;;3.10;;
2956;SDS011;1488;51.548;7.222;2023-06-10T08:41:34;2.80;;;2.60;;
2956;SDS011;1488;51.548;7.222;2023-06-10T08:44:07;3.40;;;2.70;;
2956;SDS011;1488;51.548;7.222;2023-06-10T08:46:36;2.97;;;2.77;;
2956;SDS011;1488;51.548;7.222;2023-06-10T08:49:06;3.03;;;2.80;;
2956;SDS011;1488;51.548;7.222;2023-06-10T08:51:34;3.10;;;2.80;;
2956;SDS011;1488;51.548;7.222;2023-06-10T08:54:04;3.37;;;3.17;;
2956;SDS011;1488;51.548;7.222;2023-06-10T08:56:39;3.30;;;3.00;;
2956;SDS011;1488;51.548;7.222;2023-06-10T08:59:06;3.30;;;3.10;;
2956;SDS011;1488;51.548;7.222;2023-06-10T09:01:35;2.93;;;2.73;;
2956;SDS011;1488;51.548;7.222;2023-06-10T09:04:03;3.33;;;3.03;;
2956;SDS011;1488;51.548;7.222;2023-06-10T09:06:31;3.23;;;3.03;;
2956;SDS011;1488;51.548;7.222;2023-06-10T09:08:59;2.53;;;2.33;;
2956;SDS011;1488;51.548;7.222;2023-06-10T09:11:26;5.43;;;2.57;;
2956;SDS011;1488;51.548;7.222;2023-06-10T09:13:53;2.97;;;2.70;;
2956;SDS011;1488;51.548;7.222;2023-06-10T09:16:19;2.80;;;2.53;;
2956;SDS011;1488;51.548;7.222;2023-06-10T09:18:47;2.80;;;2.60;;
2956;SDS011;1488;51.548;7.222;2023-06-10T09:21:19;3.43;;;3.20;;
2956;SDS011;1488;51.548;7.222;2023-06-10T09:23:49;2.83;;;2.50;;
2956;SDS011;1488;51.548;7.222;2023-06-10T09:26:16;3.30;;;3.10;;
2956;SDS011;1488;51.548;7.222;2023-06-10T09:28:43;4.10;;;3.70;;
2956;SDS011;1488;51.548;7.222;2023-06-10T09:31:13;3.70;;;2.60;;
2956;SDS011;1488;51.548;7.222;2023-06-10T09:33:44;3.27;;;2.63;;
2956;SDS011;1488;51.548;7.222;2023-06-10T09:36:11;2.60;;;2.40;;
2956;SDS011;1488;51.548;7.222;2023-06-10T09:38:49;2.63;;;2.43;;
2956;SDS011;1488;51.548;7.222;2023-06-10T09:41:16;2.77;;;2.57;;
2956;SDS011;1488;51.548;7.222;2023-06-10T09:43:44;3.30;;;2.53;;
2956;SDS011;1488;51.548;7.222;2023-06-10T09:46:15;3.70;;;2.90;;
2956;SDS011;1488;51.548;7.222;2023-06-10T09:48:43;3.00;;;2.80;;
2956;SDS011;1488;51.548;7.222;2023-06-10T09:51:12;5.07;;;2.90;;
2956;SDS011;1488;51.548;7.222;2023-06-10T09:53:39;2.70;;;2.50;;
2956;SDS011;1488;51.548;7.222;2023-06-10T09:56:07;3.50;;;3.20;;
2956;SDS011;1488;51.548;7.222;2023-06-10T09:58:36;2.40;;;2.20;;
2956;SDS011;1488;51.548;7.222;2023-06-10T10:01:04;2.70;;;2.50;;
2956;SDS011;1488;51.548;7.222;2023-06-10T10:03:31;4.00;;;2.63;;
2956;SDS011;1488;51.548;7.222;2023-06-10T10:05:58;2.60;;;2.40;;
2956;SDS011;1488;51.548;7.222;2023-06-10T10:08:26;2.80;;;2.60;;
2956;SDS011;1488;51.548;7.222;2023-06-10T10:10:53;2.80;;;2.60;;
2956;SDS011;1488;51.548;7.222;2023-06-10T10:13:23;2.87;;;2.67;;
2956;SDS011;1488;51.548;7.222;2023-06-10T10:15:51;2.87;;;2.20;;
2956;SDS011;1488;51.548;7.222;2023-06-10T10:18:19;2.60;;;2.40;;
2956;SDS011;1488;51.548;7.222;2023-06-10T10:20:53;2.70;;;2.50;;
2956;SDS011;1488;51.548;7.222;2023-06-10T10:23:21;3.60;;;2.80;;
2956;SDS011;1488;51.548;7.222;2023-06-10T10:25:54;3.00;;;2.80;;
2956;SDS011;1488;51.548;7.222;2023-06-10T10:28:25;2.60;;;2.40;;
2956;SDS011;1488;51.548;7.222;2023-06-10T10:31:01;4.43;;;2.50;;
2956;SDS011;1488;51.548;7.222;2023-06-10T10:33:36;3.30;;;2.63;;
2956;SDS011;1488;51.548;7.222;2023-06-10T10:36:08;3.63;;;2.70;;
2956;SDS011;1488;51.548;7.222;2023-06-10T10:38:35;2.80;;;2.53;;
2956;SDS011;1488;51.548;7.222;2023-06-10T10:41:02;2.97;;;2.73;;
2956;SDS011;1488;51.548;7.222;2023-06-10T10:43:31;2.77;;;2.57;;
2956;SDS011;1488;51.548;7.222;2023-06-10T10:45:59;2.87;;;2.60;;
2956;SDS011;1488;51.548;7.222;2023-06-10T10:48:26;3.47;;;3.27;;
2956;SDS011;1488;51.548;7.222;2023-06-10T10:50:59;5.53;;;2.70;;
2956;SDS011;1488;51.548;7.222;2023-06-10T10:53:26;3.03;;;2.83;;
2956;SDS011;1488;51.548;7.222;2023-06-10T10:55:59;2.90;;;2.70;;
2956;SDS011;1488;51.548;7.222;2023-06-10T10:58:31;2.70;;;2.50;;
2956;SDS011;1488;51.548;7.222;2023-06-10T11:00:58;2.80;;;2.60;;
2956;SDS011;1488;51.548;7.222;2023-06-10T11:03:27;2.97;;;2.77;;
2956;SDS011;1488;51.548;7.222;2023-06-10T11:05:56;3.00;;;2.70;;
2956;SDS011;1488;51.548;7.222;2023-06-10T11:11:18;2.83;;;2.63;;
2956;SDS011;1488;51.548;7.222;2023-06-10T11:14:06;3.70;;;2.87;;
2956;SDS011;1488;51.548;7.222;2023-06-10T11:16:38;3.13;;;2.43;;
2956;SDS011;1488;51.548;7.222;2023-06-10T11:19:07;3.07;;;2.87;;
2956;SDS011;1488;51.548;7.222;2023-06-10T11:21:37;3.43;;;3.13;;
2956;SDS011;1488;51.548;7.222;2023-06-10T11:24:18;2.53;;;2.33;;
2956;SDS011;1488;51.548;7.222;2023-06-10T11:26:45;2.60;;;2.40;;
2956;SDS011;1488;51.548;7.222;2023-06-10T11:29:14;3.03;;;2.73;;
2956;SDS011;1488;51.548;7.222;2023-06-10T11:31:43;2.97;;;2.77;;
2956;SDS011;1488;51.548;7.222;2023-06-10T11:34:12;3.37;;;3.07;;
2956;SDS011;1488;51.548;7.222;2023-06-10T11:36:40;3.57;;;3.03;;
2956;SDS011;1488;51.548;7.222;2023-06-10T11:39:10;2.73;;;2.13;;
2956;SDS011;1488;51.548;7.222;2023-06-10T11:41:38;2.83;;;2.63;;
2956;SDS011;1488;51.548;7.222;2023-06-10T11:44:09;5.10;;;2.70;;
2956;SDS011;1488;51.548;7.222;2023-06-10T11:46:38;3.07;;;2.87;;
2956;SDS011;1488;51.548;7.222;2023-06-10T11:49:07;8.43;;;4.87;;
2956;SDS011;1488;51.548;7.222;2023-06-10T11:51:35;7.67;;;5.50;;
2956;SDS011;1488;51.548;7.222;2023-06-10T11:54:04;14.40;;;8.03;;
2956;SDS011;1488;51.548;7.222;2023-06-10T11:56:32;24.00;;;12.30;;
2956;SDS011;1488;51.548;7.222;2023-06-10T11:58:59;22.63;;;11.93;;
2956;SDS011;1488;51.548;7.222;2023-06-10T12:01:29;25.33;;;13.07;;
2956;SDS011;1488;51.548;7.222;2023-06-10T12:03:59;18.60;;;13.60;;
2956;SDS011;1488;51.548;7.222;2023-06-10T12:06:27;23.77;;;11.77;;
2956;SDS011;1488;51.548;7.222;2023-06-10T12:09:03;37.77;;;17.10;;
2956;SDS011;1488;51.548;7.222;2023-06-10T12:11:30;30.80;;;17.17;;
2956;SDS011;1488;51.548;7.222;2023-06-10T12:13:57;28.90;;;17.63;;
2956;SDS011;1488;51.548;7.222;2023-06-10T12:16:24;43.13;;;17.50;;
2956;SDS011;1488;51.548;7.222;2023-06-10T12:18:51;33.40;;;18.47;;
2956;SDS011;1488;51.548;7.222;2023-06-10T12:21:28;42.33;;;18.90;;
2956;SDS011;1488;51.548;7.222;2023-06-10T12:24:05;52.93;;;20.63;;
2956;SDS011;1488;51.548;7.222;2023-06-10T12:26:39;40.40;;;19.30;;
2956;SDS011;1488;51.548;7.222;2023-06-10T12:29:20;49.97;;;23.77;;
2956;SDS011;1488;51.548;7.222;2023-06-10T12:31:59;49.43;;;20.77;;
2956;SDS011;1488;51.548;7.222;2023-06-10T12:34:31;42.57;;;21.97;;
2956;SDS011;1488;51.548;7.222;2023-06-10T12:37:00;48.70;;;22.77;;
2956;SDS011;1488;51.548;7.222;2023-06-10T12:39:29;46.53;;;22.43;;
2956;SDS011;1488;51.548;7.222;2023-06-10T12:41:56;57.07;;;21.87;;
2956;SDS011;1488;51.548;7.222;2023-06-10T12:44:31;22.90;;;13.20;;
2956;SDS011;1488;51.548;7.222;2023-06-10T12:46:59;33.40;;;15.97;;
2956;SDS011;1488;51.548;7.222;2023-06-10T12:49:26;31.77;;;16.63;;
2956;SDS011;1488;51.548;7.222;2023-06-10T12:51:53;35.27;;;16.50;;
2956;SDS011;1488;51.548;7.222;2023-06-10T12:54:22;35.43;;;17.00;;
2956;SDS011;1488;51.548;7.222;2023-06-10T12:56:50;31.33;;;16.20;;
2956;SDS011;1488;51.548;7.222;2023-06-10T12:59:18;38.23;;;16.40;;
2956;SDS011;1488;51.548;7.222;2023-06-10T13:01:49;34.93;;;15.83;;
2956;SDS011;1488;51.548;7.222;2023-06-10T13:04:17;31.63;;;14.80;;
2956;SDS011;1488;51.548;7.222;2023-06-10T13:06:44;32.50;;;14.50;;
2956;SDS011;1488;51.548;7.222;2023-06-10T13:09:12;32.43;;;15.50;;
2956;SDS011;1488;51.548;7.222;2023-06-10T13:11:42;29.17;;;16.00;;
2956;SDS011;1488;51.548;7.222;2023-06-10T13:14:09;25.13;;;14.60;;
2956;SDS011;1488;51.548;7.222;2023-06-10T13:16:37;33.43;;;13.90;;
2956;SDS011;1488;51.548;7.222;2023-06-10T13:19:04;26.30;;;12.67;;
2956;SDS011;1488;51.548;7.222;2023-06-10T13:21:31;20.50;;;10.50;;
2956;SDS011;1488;51.548;7.222;2023-06-10T13:23:59;22.23;;;10.13;;
2956;SDS011;1488;51.548;7.222;2023-06-10T13:26:25;14.67;;;9.90;;
2956;SDS011;1488;51.548;7.222;2023-06-10T13:28:53;20.03;;;9.70;;
2956;SDS011;1488;51.548;7.222;2023-06-10T13:31:20;21.10;;;9.77;;
2956;SDS011;1488;51.548;7.222;2023-06-10T13:33:47;18.90;;;10.20;;
2956;SDS011;1488;51.548;7.222;2023-06-10T13:36:14;17.97;;;8.53;;
2956;SDS011;1488;51.548;7.222;2023-06-10T13:38:41;14.50;;;8.40;;
2956;SDS011;1488;51.548;7.222;2023-06-10T13:41:07;14.30;;;8.87;;
2956;SDS011;1488;51.548;7.222;2023-06-10T13:43:35;15.90;;;9.23;;
2956;SDS011;1488;51.548;7.222;2023-06-10T13:46:03;18.77;;;9.43;;
2956;SDS011;1488;51.548;7.222;2023-06-10T13:48:30;15.10;;;9.70;;
2956;SDS011;1488;51.548;7.222;2023-06-10T13:50:57;15.50;;;9.40;;
2956;SDS011;1488;51.548;7.222;2023-06-10T13:53:25;18.70;;;10.90;;
2956;SDS011;1488;51.548;7.222;2023-06-10T13:55:51;18.07;;;8.73;;
2956;SDS011;1488;51.548;7.222;2023-06-10T13:58:18;16.57;;;7.03;;
2956;SDS011;1488;51.548;7.222;2023-06-10T14:00:45;11.83;;;6.40;;
2956;SDS011;1488;51.548;7.222;2023-06-10T14:03:13;12.90;;;7.53;;
2956;SDS011;1488;51.548;7.222;2023-06-10T14:05:40;13.77;;;7.70;;
2956;SDS011;1488;51.548;7.222;2023-06-10T14:08:07;12.43;;;7.20;;
2956;SDS011;1488;51.548;7.222;2023-06-10T14:10:34;13.40;;;7.80;;
2956;SDS011;1488;51.548;7.222;2023-06-10T14:13:01;16.57;;;7.50;;
2956;SDS011;1488;51.548;7.222;2023-06-10T14:15:28;10.57;;;6.73;;
2956;SDS011;1488;51.548;7.222;2023-06-10T14:17:55;12.03;;;7.60;;
2956;SDS011;1488;51.548;7.222;2023-06-10T14:20:23;13.93;;;7.63;;
2956;SDS011;1488;51.548;7.222;2023-06-10T14:22:51;8.63;;;6.30;;
2956;SDS011;1488;51.548;7.222;2023-06-10T14:25:18;10.60;;;6.70;;
2956;SDS011;1488;51.548;7.222;2023-06-10T14:27:45;11.90;;;5.60;;
2956;SDS011;1488;51.548;7.222;2023-06-10T14:30:12;11.73;;;6.87;;
2956;SDS011;1488;51.548;7.222;2023-06-10T14:32:39;10.57;;;7.40;;
2956;SDS011;1488;51.548;7.222;2023-06-10T14:35:06;10.80;;;7.77;;
2956;SDS011;1488;51.548;7.222;2023-06-10T14:37:35;10.13;;;6.30;;
2956;SDS011;1488;51.548;7.222;2023-06-10T14:40:02;10.80;;;6.07;;
2956;SDS011;1488;51.548;7.222;2023-06-10T14:42:29;8.93;;;6.47;;
2956;SDS011;1488;51.548;7.222;2023-06-10T14:44:57;9.40;;;5.97;;
2956;SDS011;1488;51.548;7.222;2023-06-10T14:47:23;11.07;;;6.70;;
2956;SDS011;1488;51.548;7.222;2023-06-10T14:49:51;10.70;;;6.67;;
2956;SDS011;1488;51.548;7.222;2023-06-10T14:52:18;8.20;;;6.17;;
2956;SDS011;1488;51.548;7.222;2023-06-10T14:54:46;7.17;;;6.03;;
2956;SDS011;1488;51.548;7.222;2023-06-10T14:57:12;7.63;;;5.53;;
2956;SDS011;1488;51.548;7.222;2023-06-10T14:59:39;7.60;;;6.07;;
2956;SDS011;1488;51.548;7.222;2023-06-10T15:02:06;9.87;;;6.63;;
2956;SDS011;1488;51.548;7.222;2023-06-10T15:04:33;5.60;;;4.70;;
2956;SDS011;1488;51.548;7.222;2023-06-10T15:07:00;8.60;;;5.83;;
2956;SDS011;1488;51.548;7.222;2023-06-10T15:09:27;7.87;;;5.57;;
2956;SDS011;1488;51.548;7.222;2023-06-10T15:11:55;7.07;;;5.73;;
2956;SDS011;1488;51.548;7.222;2023-06-10T15:14:21;7.97;;;5.47;;
2956;SDS011;1488;51.548;7.222;2023-06-10T15:16:48;9.03;;;6.70;;
2956;SDS011;1488;51.548;7.222;2023-06-10T15:19:15;7.57;;;5.60;;
2956;SDS011;1488;51.548;7.222;2023-06-10T15:21:42;7.17;;;5.93;;
2956;SDS011;1488;51.548;7.222;2023-06-10T15:24:08;7.67;;;6.17;;
2956;SDS011;1488;51.548;7.222;2023-06-10T15:26:36;7.67;;;5.43;;
2956;SDS011;1488;51.548;7.222;2023-06-10T15:29:04;7.67;;;5.90;;
2956;SDS011;1488;51.548;7.222;2023-06-10T15:31:31;7.10;;;4.70;;
2956;SDS011;1488;51.548;7.222;2023-06-10T15:33:58;7.53;;;4.97;;
2956;SDS011;1488;51.548;7.222;2023-06-10T15:36:25;8.37;;;5.70;;
2956;SDS011;1488;51.548;7.222;2023-06-10T15:38:52;5.93;;;5.33;;
2956;SDS011;1488;51.548;7.222;2023-06-10T15:41:19;5.30;;;4.80;;
2956;SDS011;1488;51.548;7.222;2023-06-10T15:43:46;7.03;;;5.77;;
2956;SDS011;1488;51.548;7.222;2023-06-10T15:46:14;6.17;;;4.70;;
2956;SDS011;1488;51.548;7.222;2023-06-10T15:48:41;7.30;;;5.43;;
2956;SDS011;1488;51.548;7.222;2023-06-10T15:51:08;4.97;;;4.40;;
2956;SDS011;1488;51.548;7.222;2023-06-10T15:53:34;6.13;;;4.90;;
2956;SDS011;1488;51.548;7.222;2023-06-10T15:56:01;8.73;;;4.87;;
2956;SDS011;1488;51.548;7.222;2023-06-10T15:58:29;5.03;;;4.60;;
2956;SDS011;1488;51.548;7.222;2023-06-10T16:00:55;7.67;;;5.07;;
2956;SDS011;1488;51.548;7.222;2023-06-10T16:03:23;4.80;;;4.30;;
2956;SDS011;1488;51.548;7.222;2023-06-10T16:05:50;4.90;;;4.50;;
2956;SDS011;1488;51.548;7.222;2023-06-10T16:08:17;7.60;;;4.70;;
2956;SDS011;1488;51.548;7.222;2023-06-10T16:10:44;9.90;;;4.83;;
2956;SDS011;1488;51.548;7.222;2023-06-10T16:13:11;5.97;;;4.53;;
2956;SDS011;1488;51.548;7.222;2023-06-10T16:15:37;4.40;;;4.00;;
2956;SDS011;1488;51.548;7.222;2023-06-10T16:18:04;5.20;;;4.70;;
2956;SDS011;1488;51.548;7.222;2023-06-10T16:20:33;5.60;;;3.93;;
2956;SDS011;1488;51.548;7.222;2023-06-10T16:23:00;6.10;;;4.77;;
2956;SDS011;1488;51.548;7.222;2023-06-10T16:25:27;5.10;;;4.70;;
2956;SDS011;1488;51.548;7.222;2023-06-10T16:27:54;4.87;;;4.37;;
2956;SDS011;1488;51.548;7.222;2023-06-10T16:30:21;4.83;;;3.97;;
2956;SDS011;1488;51.548;7.222;2023-06-10T16:32:48;5.40;;;4.67;;
2956;SDS011;1488;51.548;7.222;2023-06-10T16:35:15;5.00;;;4.40;;
2956;SDS011;1488;51.548;7.222;2023-06-10T16:37:43;4.97;;;4.23;;
2956;SDS011;1488;51.548;7.222;2023-06-10T16:40:11;4.20;;;3.80;;
2956;SDS011;1488;51.548;7.222;2023-06-10T16:42:39;5.43;;;4.83;;
2956;SDS011;1488;51.548;7.222;2023-06-10T16:45:06;3.67;;;3.37;;
2956;SDS011;1488;51.548;7.222;2023-06-10T16:47:34;4.40;;;4.00;;
2956;SDS011;1488;51.548;7.222;2023-06-10T16:50:00;5.57;;;4.60;;
2956;SDS011;1488;51.548;7.222;2023-06-10T16:52:28;4.80;;;4.40;;
2956;SDS011;1488;51.548;7.222;2023-06-10T16:54:56;4.27;;;3.87;;
2956;SDS011;1488;51.548;7.222;2023-06-10T16:57:23;4.33;;;3.57;;
2956;SDS011;1488;51.548;7.222;2023-06-10T16:59:50;6.13;;;4.00;;
2956;SDS011;1488;51.548;7.222;2023-06-10T17:02:16;4.53;;;4.13;;
2956;SDS011;1488;51.548;7.222;2023-06-10T17:04:43;6.43;;;4.63;;
2956;SDS011;1488;51.548;7.222;2023-06-10T17:07:10;5.30;;;3.70;;
2956;SDS011;1488;51.548;7.222;2023-06-10T17:09:37;4.00;;;3.43;;
2956;SDS011;1488;51.548;7.222;2023-06-10T17:12:05;4.10;;;3.70;;
2956;SDS011;1488;51.548;7.222;2023-06-10T17:14:33;5.30;;;4.80;;
2956;SDS011;1488;51.548;7.222;2023-06-10T17:17:01;4.13;;;3.73;;
2956;SDS011;1488;51.548;7.222;2023-06-10T17:19:28;4.20;;;3.80;;
2956;SDS011;1488;51.548;7.222;2023-06-10T17:21:55;5.23;;;3.30;;
2956;SDS011;1488;51.548;7.222;2023-06-10T17:24:22;4.40;;;3.97;;
2956;SDS011;1488;51.548;7.222;2023-06-10T17:26:49;4.93;;;4.33;;
2956;SDS011;1488;51.548;7.222;2023-06-10T17:29:17;4.67;;;4.27;;
2956;SDS011;1488;51.548;7.222;2023-06-10T17:31:44;4.70;;;4.00;;
2956;SDS011;1488;51.548;7.222;2023-06-10T17:34:11;4.47;;;4.07;;
2956;SDS011;1488;51.548;7.222;2023-06-10T17:36:37;4.53;;;4.13;;
2956;SDS011;1488;51.548;7.222;2023-06-10T17:39:04;4.10;;;3.70;;
2956;SDS011;1488;51.548;7.222;2023-06-10T17:41:31;6.60;;;5.03;;
2956;SDS011;1488;51.548;7.222;2023-06-10T17:43:58;3.73;;;3.17;;
2956;SDS011;1488;51.548;7.222;2023-06-10T17:46:26;3.90;;;3.60;;
2956;SDS011;1488;51.548;7.222;2023-06-10T17:48:53;3.50;;;3.20;;
2956;SDS011;1488;51.548;7.222;2023-06-10T17:51:20;4.60;;;4.20;;
2956;SDS011;1488;51.548;7.222;2023-06-10T17:53:47;4.70;;;4.30;;
2956;SDS011;1488;51.548;7.222;2023-06-10T17:56:14;3.87;;;3.57;;
2956;SDS011;1488;51.548;7.222;2023-06-10T17:58:41;4.43;;;3.90;;
2956;SDS011;1488;51.548;7.222;2023-06-10T18:01:07;4.63;;;4.23;;
2956;SDS011;1488;51.548;7.222;2023-06-10T18:03:35;3.80;;;3.50;;
2956;SDS011;1488;51.548;7.222;2023-06-10T18:06:04;4.20;;;3.77;;
2956;SDS011;1488;51.548;7.222;2023-06-10T18:08:30;4.00;;;3.67;;
2956;SDS011;1488;51.548;7.222;2023-06-10T18:10:59;3.60;;;3.30;;
2956;SDS011;1488;51.548;7.222;2023-06-10T18:13:27;3.87;;;3.57;;
2956;SDS011;1488;51.548;7.222;2023-06-10T18:15:55;3.97;;;3.67;;
2956;SDS011;1488;51.548;7.222;2023-06-10T18:18:25;3.57;;;3.27;;
2956;SDS011;1488;51.548;7.222;2023-06-10T18:20:53;4.77;;;3.43;;
2956;SDS011;1488;51.548;7.222;2023-06-10T18:23:20;3.63;;;3.33;;
2956;SDS011;1488;51.548;7.222;2023-06-10T18:25:47;4.00;;;3.70;;
2956;SDS011;1488;51.548;7.222;2023-06-10T18:28:13;4.40;;;3.77;;
2956;SDS011;1488;51.548;7.222;2023-06-10T18:30:40;4.03;;;3.73;;
2956;SDS011;1488;51.548;7.222;2023-06-10T18:33:07;4.10;;;3.80;;
2956;SDS011;1488;51.548;7.222;2023-06-10T18:35:34;4.17;;;3.87;;
2956;SDS011;1488;51.548;7.222;2023-06-10T18:38:02;4.07;;;3.77;;
2956;SDS011;1488;51.548;7.222;2023-06-10T18:40:29;3.87;;;3.47;;
2956;SDS011;1488;51.548;7.222;2023-06-10T18:42:56;3.57;;;3.27;;
2956;SDS011;1488;51.548;7.222;2023-06-10T18:45:22;4.10;;;3.80;;
2956;SDS011;1488;51.548;7.222;2023-06-10T18:47:49;2.83;;;2.63;;
2956;SDS011;1488;51.548;7.222;2023-06-10T18:50:16;4.60;;;4.20;;
2956;SDS011;1488;51.548;7.222;2023-06-10T18:52:43;3.83;;;3.53;;
2956;SDS011;1488;51.548;7.222;2023-06-10T18:55:11;4.10;;;3.80;;
2956;SDS011;1488;51.548;7.222;2023-06-10T18:57:38;3.77;;;3.47;;
2956;SDS011;1488;51.548;7.222;2023-06-10T19:00:05;3.93;;;3.63;;
2956;SDS011;1488;51.548;7.222;2023-06-10T19:02:33;4.17;;;3.70;;
2956;SDS011;1488;51.548;7.222;2023-06-10T19:05:00;4.00;;;3.70;;
2956;SDS011;1488;51.548;7.222;2023-06-10T19:07:26;3.73;;;3.43;;
2956;SDS011;1488;51.548;7.222;2023-06-10T19:09:53;3.90;;;3.60;;
2956;SDS011;1488;51.548;7.222;2023-06-10T19:12:21;3.40;;;3.20;;
2956;SDS011;1488;51.548;7.222;2023-06-10T19:14:48;3.50;;;3.20;;
2956;SDS011;1488;51.548;7.222;2023-06-10T19:17:15;3.33;;;3.13;;
2956;SDS011;1488;51.548;7.222;2023-06-10T19:19:42;3.30;;;3.00;;
2956;SDS011;1488;51.548;7.222;2023-06-10T19:22:09;3.57;;;3.37;;
2956;SDS011;1488;51.548;7.222;2023-06-10T19:24:37;4.00;;;3.70;;
2956;SDS011;1488;51.548;7.222;2023-06-10T19:27:04;3.60;;;3.30;;
2956;SDS011;1488;51.548;7.222;2023-06-10T19:29:33;3.50;;;3.30;;
2956;SDS011;1488;51.548;7.222;2023-06-10T19:32:00;4.30;;;4.00;;
2956;SDS011;1488;51.548;7.222;2023-06-10T19:34:27;3.97;;;3.67;;
2956;SDS011;1488;51.548;7.222;2023-06-10T19:36:54;3.37;;;3.07;;
2956;SDS011;1488;51.548;7.222;2023-06-10T19:39:21;3.70;;;3.40;;
2956;SDS011;1488;51.548;7.222;2023-06-10T19:41:47;3.80;;;3.50;;
2956;SDS011;1488;51.548;7.222;2023-06-10T19:44:14;3.10;;;2.90;;
2956;SDS011;1488;51.548;7.222;2023-06-10T19:46:45;3.87;;;3.47;;
2956;SDS011;1488;51.548;7.222;2023-06-10T19:49:12;3.47;;;3.27;;
2956;SDS011;1488;51.548;7.222;2023-06-10T19:51:40;4.10;;;3.80;;
2956;SDS011;1488;51.548;7.222;2023-06-10T19:54:07;3.73;;;3.50;;
2956;SDS011;1488;51.548;7.222;2023-06-10T19:56:33;3.67;;;3.37;;
2956;SDS011;1488;51.548;7.222;2023-06-10T19:59:00;3.93;;;3.63;;
2956;SDS011;1488;51.548;7.222;2023-06-10T20:01:27;3.63;;;3.30;;
2956;SDS011;1488;51.548;7.222;2023-06-10T20:03:55;3.40;;;2.90;;
2956;SDS011;1488;51.548;7.222;2023-06-10T20:06:22;3.83;;;3.53;;
2956;SDS011;1488;51.548;7.222;2023-06-10T20:08:49;3.73;;;3.43;;
2956;SDS011;1488;51.548;7.222;2023-06-10T20:11:15;3.87;;;3.43;;
2956;SDS011;1488;51.548;7.222;2023-06-10T20:13:42;3.20;;;3.00;;
2956;SDS011;1488;51.548;7.222;2023-06-10T20:16:09;3.17;;;2.97;;
2956;SDS011;1488;51.548;7.222;2023-06-10T20:18:36;4.17;;;3.70;;
2956;SDS011;1488;51.548;7.222;2023-06-10T20:21:04;3.20;;;3.00;;
2956;SDS011;1488;51.548;7.222;2023-06-10T20:23:31;3.40;;;3.20;;
2956;SDS011;1488;51.548;7.222;2023-06-10T20:25:58;3.90;;;3.50;;
2956;SDS011;1488;51.548;7.222;2023-06-10T20:28:25;4.70;;;3.63;;
2956;SDS011;1488;51.548;7.222;2023-06-10T20:30:52;4.17;;;3.87;;
2956;SDS011;1488;51.548;7.222;2023-06-10T20:33:21;3.90;;;3.50;;
2956;SDS011;1488;51.548;7.222;2023-06-10T20:35:48;3.83;;;3.53;;
2956;SDS011;1488;51.548;7.222;2023-06-10T20:38:18;4.63;;;3.40;;
2956;SDS011;1488;51.548;7.222;2023-06-10T20:40:44;4.87;;;3.40;;
2956;SDS011;1488;51.548;7.222;2023-06-10T20:43:11;3.50;;;3.30;;
2956;SDS011;1488;51.548;7.222;2023-06-10T20:45:38;3.80;;;3.50;;
2956;SDS011;1488;51.548;7.222;2023-06-10T20:48:05;3.97;;;3.37;;
2956;SDS011;1488;51.548;7.222;2023-06-10T20:50:32;3.40;;;3.03;;
2956;SDS011;1488;51.548;7.222;2023-06-10T20:53:00;3.73;;;3.43;;
2956;SDS011;1488;51.548;7.222;2023-06-10T20:55:30;5.10;;;3.67;;
2956;SDS011;1488;51.548;7.222;2023-06-10T20:57:57;4.00;;;3.60;;
2956;SDS011;1488;51.548;7.222;2023-06-10T21:00:24;3.47;;;3.17;;
2956;SDS011;1488;51.548;7.222;2023-06-10T21:02:51;3.93;;;3.63;;
2956;SDS011;1488;51.548;7.222;2023-06-10T21:05:19;3.97;;;3.57;;
2956;SDS011;1488;51.548;7.222;2023-06-10T21:07:46;3.60;;;3.30;;
2956;SDS011;1488;51.548;7.222;2023-06-10T21:10:12;4.07;;;3.77;;
2956;SDS011;1488;51.548;7.222;2023-06-10T21:12:41;3.83;;;3.53;;
2956;SDS011;1488;51.548;7.222;2023-06-10T21:15:08;3.90;;;3.27;;
2956;SDS011;1488;51.548;7.222;2023-06-10T21:17:35;3.60;;;3.30;;
2956;SDS011;1488;51.548;7.222;2023-06-10T21:20:02;3.80;;;3.50;;
2956;SDS011;1488;51.548;7.222;2023-06-10T21:22:30;4.03;;;3.70;;
2956;SDS011;1488;51.548;7.222;2023-06-10T21:24:58;3.40;;;3.20;;
2956;SDS011;1488;51.548;7.222;2023-06-10T21:27:24;3.40;;;3.20;;
2956;SDS011;1488;51.548;7.222;2023-06-10T21:29:53;2.87;;;2.67;;
2956;SDS011;1488;51.548;7.222;2023-06-10T21:32:19;8.67;;;4.50;;
2956;SDS011;1488;51.548;7.222;2023-06-10T21:34:46;3.80;;;3.50;;
2956;SDS011;1488;51.548;7.222;2023-06-10T21:37:14;3.80;;;3.60;;
2956;SDS011;1488;51.548;7.222;2023-06-10T21:39:41;4.10;;;3.40;;
2956;SDS011;1488;51.548;7.222;2023-06-10T21:42:08;3.63;;;3.33;;
2956;SDS011;1488;51.548;7.222;2023-06-10T21:44:35;3.47;;;3.27;;
2956;SDS011;1488;51.548;7.222;2023-06-10T21:47:04;3.90;;;3.40;;
2956;SDS011;1488;51.548;7.222;2023-06-10T21:49:31;3.23;;;3.03;;
2956;SDS011;1488;51.548;7.222;2023-06-10T21:51:58;3.33;;;3.13;;
2956;SDS011;1488;51.548;7.222;2023-06-10T21:54:25;3.70;;;3.40;;
2956;SDS011;1488;51.548;7.222;2023-06-10T21:56:52;3.83;;;2.80;;
2956;SDS011;1488;51.548;7.222;2023-06-10T21:59:19;3.20;;;2.90;;
2956;SDS011;1488;51.548;7.222;2023-06-10T22:01:47;3.60;;;3.30;;
2956;SDS011;1488;51.548;7.222;2023-06-10T22:04:15;5.50;;;3.73;;
2956;SDS011;1488;51.548;7.222;2023-06-10T22:06:42;4.00;;;3.60;;
2956;SDS011;1488;51.548;7.222;2023-06-10T22:09:09;2.87;;;2.70;;
2956;SDS011;1488;51.548;7.222;2023-06-10T22:11:36;3.30;;;3.10;;
2956;SDS011;1488;51.548;7.222;2023-06-10T22:14:02;3.40;;;3.10;;
2956;SDS011;1488;51.548;7.222;2023-06-10T22:16:29;3.50;;;3.20;;
2956;SDS011;1488;51.548;7.222;2023-06-10T22:18:56;3.17;;;2.97;;
2956;SDS011;1488;51.548;7.222;2023-06-10T22:21:24;3.70;;;3.40;;
2956;SDS011;1488;51.548;7.222;2023-06-10T22:23:52;3.00;;;2.80;;